Terminal Aerodrome Forecast
Issued by NWS Wilmington, OH

Current Version | Previous Version | Text Only | Print | Product List | Glossary Off
Versions: 1 2 3 4 5 6 7 8 9 10 11 12 13 14 15 16 17 18 19 20 21 22

126
FTUS41 KILN 280251 AAA
TAFCVG
TAF AMD
KCVG 280251Z 2803/2906 17005KT P6SM BKN250
     FM281500 20008KT P6SM SCT035 BKN200
     FM281800 21010KT P6SM VCSH BKN040
     FM282300 22008KT P6SM SCT050 BKN200=

USA.gov is the U.S. government's official web portal to all federal, state and local government web resources and services.